Time;durP1;ratioP1;P1;durP2;ratioP2;P2;SDS_P1;SDS_P2;PMS_P1;PMS_P2;Temp;Humidity;BMP_temperature;BMP_pressure;BME280_temperature;BME280_humidity;BME280_pressure;Samples;Min_cycle;Max_cycle;Signal;HPM_P1;HPM_P2
2023/07/03 00:01:30;;;;;;;12.03;10.20;;;17.40;99.90;;;;;;4973671;28;20225;-76
2023/07/03 00:03:58;;;;;;;12.10;10.00;;;17.40;99.90;;;;;;4937942;28;20213;-79
2023/07/03 00:06:29;;;;;;;13.70;10.67;;;17.40;99.90;;;;;;4935232;29;20212;-79
2023/07/03 00:08:57;;;;;;;12.50;10.67;;;17.30;99.90;;;;;;4935479;29;20208;-80
2023/07/03 00:11:25;;;;;;;14.23;11.57;;;17.20;99.90;;;;;;4934916;29;20216;-77
2023/07/03 00:13:53;;;;;;;13.83;11.10;;;17.10;99.90;;;;;;4934793;29;20259;-80
2023/07/03 00:16:21;;;;;;;13.63;10.93;;;17.00;99.90;;;;;;4935118;29;20263;-77
2023/07/03 00:18:49;;;;;;;14.43;11.27;;;16.90;99.90;;;;;;4934454;29;20212;-80
2023/07/03 00:21:17;;;;;;;13.67;11.43;;;16.80;99.90;;;;;;4934786;29;20216;-79
2023/07/03 00:23:47;;;;;;;13.03;11.17;;;16.70;99.90;;;;;;4934612;29;20250;-78
2023/07/03 00:26:15;;;;;;;17.47;11.47;;;16.70;99.90;;;;;;4934741;29;20577;-79
2023/07/03 00:28:43;;;;;;;14.70;11.17;;;16.60;99.90;;;;;;4938042;29;20239;-79
2023/07/03 00:31:11;;;;;;;16.43;11.77;;;16.50;99.90;;;;;;4941423;29;20291;-81
2023/07/03 00:33:39;;;;;;;17.57;12.13;;;16.40;99.90;;;;;;4940647;29;20709;-79
2023/07/03 00:36:09;;;;;;;14.33;11.77;;;16.40;99.90;;;;;;4941026;29;20239;-79
2023/07/03 00:38:37;;;;;;;15.93;11.80;;;16.30;99.90;;;;;;4940535;29;20216;-79
2023/07/03 00:41:07;;;;;;;14.70;12.40;;;16.20;99.90;;;;;;4941099;29;20247;-79
2023/07/03 00:43:40;;;;;;;14.17;12.03;;;16.20;99.90;;;;;;4940658;29;20597;-80
2023/07/03 00:46:09;;;;;;;17.60;12.43;;;16.10;99.90;;;;;;4940770;29;20574;-80
2023/07/03 00:48:38;;;;;;;17.47;12.80;;;16.10;99.90;;;;;;4940906;29;20219;-80
2023/07/03 00:51:06;;;;;;;15.87;12.93;;;16.00;99.90;;;;;;4941131;29;20267;-80
2023/07/03 00:53:34;;;;;;;14.67;12.00;;;16.00;99.90;;;;;;4940035;29;20271;-78
2023/07/03 00:56:03;;;;;;;15.33;12.23;;;16.00;99.90;;;;;;4948983;28;20290;-78
2023/07/03 00:58:33;;;;;;;18.13;12.97;;;15.90;99.90;;;;;;4979191;28;20257;-79
2023/07/03 01:01:08;;;;;;;17.07;12.40;;;15.90;99.90;;;;;;4979431;28;20270;-81
2023/07/03 01:03:41;;;;;;;15.60;12.10;;;15.80;99.90;;;;;;4951011;28;20203;-81
2023/07/03 01:06:19;;;;;;;15.83;13.13;;;15.70;99.90;;;;;;4940966;29;20235;-77
2023/07/03 01:08:50;;;;;;;16.43;12.00;;;15.70;99.90;;;;;;4940710;29;20216;-80
2023/07/03 01:11:22;;;;;;;18.03;12.50;;;15.60;99.90;;;;;;4940605;29;20318;-80
2023/07/03 01:13:55;;;;;;;17.57;13.37;;;15.60;99.90;;;;;;4940748;29;20227;-78
2023/07/03 01:16:23;;;;;;;18.57;12.57;;;15.50;99.90;;;;;;4959654;29;20250;-78
2023/07/03 01:18:54;;;;;;;15.40;12.60;;;15.50;99.90;;;;;;4959978;28;20217;-80
2023/07/03 01:21:27;;;;;;;16.27;12.53;;;15.50;99.90;;;;;;4959948;28;20200;-78
2023/07/03 01:24:01;;;;;;;17.53;13.00;;;15.40;99.90;;;;;;4941520;29;20691;-77
2023/07/03 01:26:33;;;;;;;16.20;12.23;;;15.40;99.90;;;;;;4941688;29;20215;-75
2023/07/03 01:29:03;;;;;;;18.90;12.63;;;15.40;99.90;;;;;;4941861;29;20276;-79
2023/07/03 01:31:33;;;;;;;15.90;12.83;;;15.40;99.90;;;;;;4941730;29;20236;-78
2023/07/03 01:34:03;;;;;;;16.37;12.40;;;15.40;99.90;;;;;;4940348;29;20267;-78
2023/07/03 01:36:32;;;;;;;18.83;13.23;;;15.40;99.90;;;;;;4940606;29;20235;-78
2023/07/03 01:39:02;;;;;;;18.27;12.93;;;15.40;99.90;;;;;;4940455;29;20270;-78
2023/07/03 01:41:32;;;;;;;15.37;12.33;;;15.40;99.90;;;;;;4936812;29;20622;-78
2023/07/03 01:44:00;;;;;;;16.67;12.50;;;15.40;99.90;;;;;;4937235;29;20197;-79
2023/07/03 01:46:28;;;;;;;17.03;12.70;;;15.40;99.90;;;;;;4937609;29;20212;-77
2023/07/03 01:48:57;;;;;;;17.43;13.00;;;15.40;99.90;;;;;;4937106;29;20205;-78
2023/07/03 01:51:33;;;;;;;18.53;13.23;;;15.40;99.90;;;;;;4937345;29;20281;-78
2023/07/03 01:54:08;;;;;;;18.70;13.07;;;15.40;99.90;;;;;;4937241;29;20232;-78
2023/07/03 01:56:42;;;;;;;18.83;13.47;;;15.40;99.90;;;;;;4937082;29;20310;-79
2023/07/03 01:59:12;;;;;;;18.43;12.87;;;15.50;99.90;;;;;;4936952;29;20207;-80
2023/07/03 02:01:47;;;;;;;17.33;13.33;;;15.40;99.90;;;;;;4937234;29;20255;-79
2023/07/03 02:04:25;;;;;;;16.17;12.63;;;15.40;99.90;;;;;;4937399;29;20551;-80
2023/07/03 02:06:54;;;;;;;15.33;12.27;;;15.40;99.90;;;;;;4936769;29;20222;-80
2023/07/03 02:09:22;;;;;;;19.10;14.17;;;15.50;99.90;;;;;;4937234;29;20211;-78
2023/07/03 02:11:53;;;;;;;17.00;13.07;;;15.50;99.90;;;;;;4936598;29;20235;-79
2023/07/03 02:14:24;;;;;;;17.03;12.70;;;15.50;99.90;;;;;;4936952;29;20292;-81
2023/07/03 02:16:52;;;;;;;18.70;14.17;;;15.50;99.90;;;;;;4936712;29;20212;-78
2023/07/03 02:19:28;;;;;;;18.67;13.47;;;15.50;99.90;;;;;;4936850;29;20227;-81
2023/07/03 02:21:56;;;;;;;16.87;13.47;;;15.50;99.90;;;;;;4936416;29;20216;-79
2023/07/03 02:24:25;;;;;;;18.20;13.70;;;15.50;99.90;;;;;;4936451;29;20215;-81
2023/07/03 02:26:55;;;;;;;16.40;13.27;;;15.50;99.90;;;;;;4936754;29;20235;-78
2023/07/03 02:29:23;;;;;;;16.30;13.37;;;15.50;99.90;;;;;;4936787;29;20212;-78
2023/07/03 02:31:51;;;;;;;17.60;13.57;;;15.40;99.90;;;;;;4936003;29;20236;-75
2023/07/03 02:34:20;;;;;;;18.27;13.90;;;15.40;99.90;;;;;;4936348;29;20252;-80
2023/07/03 02:36:49;;;;;;;18.47;12.53;;;15.40;99.90;;;;;;4937172;29;20228;-78
2023/07/03 02:39:17;;;;;;;16.30;13.30;;;15.40;99.90;;;;;;4936679;29;20256;-80
2023/07/03 02:41:45;;;;;;;18.60;13.90;;;15.40;99.90;;;;;;4936421;29;20635;-81
2023/07/03 02:44:15;;;;;;;18.20;13.03;;;15.30;99.90;;;;;;4936616;29;20204;-78
2023/07/03 02:46:43;;;;;;;16.80;13.50;;;15.20;99.90;;;;;;4936685;29;20243;-81
2023/07/03 02:49:11;;;;;;;17.47;13.47;;;15.20;99.90;;;;;;4936591;29;20773;-78
2023/07/03 02:51:39;;;;;;;19.20;13.80;;;15.20;99.90;;;;;;4936306;29;20227;-80
2023/07/03 02:54:07;;;;;;;16.63;13.10;;;15.00;99.90;;;;;;4957567;28;20226;-79
2023/07/03 02:56:36;;;;;;;17.57;13.77;;;15.10;99.90;;;;;;4974714;28;20289;-78
2023/07/03 02:59:05;;;;;;;19.27;13.93;;;15.00;99.90;;;;;;4948187;28;20240;-77
2023/07/03 03:01:36;;;;;;;19.60;13.60;;;15.00;99.90;;;;;;4936066;29;20205;-77
2023/07/03 03:04:04;;;;;;;17.00;13.17;;;14.90;99.90;;;;;;4935519;29;20242;-81
2023/07/03 03:06:33;;;;;;;20.17;14.00;;;14.90;99.90;;;;;;4935808;29;20216;-81
2023/07/03 03:09:01;;;;;;;19.40;12.93;;;14.80;99.90;;;;;;4935532;29;20213;-80
2023/07/03 03:11:29;;;;;;;17.60;13.40;;;14.80;99.90;;;;;;4935874;29;20236;-80
2023/07/03 03:13:57;;;;;;;17.60;13.27;;;14.70;99.90;;;;;;4935884;29;20601;-77
2023/07/03 03:16:25;;;;;;;16.33;12.93;;;14.70;99.90;;;;;;4935284;29;20323;-76
2023/07/03 03:18:55;;;;;;;19.07;13.63;;;14.70;99.90;;;;;;4935771;29;20310;-80
2023/07/03 03:21:23;;;;;;;18.37;13.93;;;14.60;99.90;;;;;;4936359;29;20247;-80
2023/07/03 03:23:51;;;;;;;19.20;14.23;;;14.60;99.90;;;;;;4934660;29;20727;-81
2023/07/03 03:26:19;;;;;;;20.20;14.43;;;14.50;99.90;;;;;;4935554;29;20212;-79
2023/07/03 03:28:47;;;;;;;22.67;14.10;;;14.60;99.90;;;;;;4935557;29;20216;-77
2023/07/03 03:31:15;;;;;;;19.43;14.87;;;14.60;99.90;;;;;;4935107;29;20215;-78
2023/07/03 03:33:43;;;;;;;22.27;15.23;;;14.60;99.90;;;;;;4935390;29;20571;-80
2023/07/03 03:36:13;;;;;;;20.37;15.13;;;14.60;99.90;;;;;;4935378;29;20243;-79
2023/07/03 03:38:41;;;;;;;19.50;14.13;;;14.60;99.90;;;;;;4935375;29;20239;-77
2023/07/03 03:41:09;;;;;;;20.37;14.63;;;14.60;99.90;;;;;;4935159;29;20244;-77
2023/07/03 03:43:37;;;;;;;21.27;15.23;;;14.60;99.90;;;;;;4934818;29;20213;-78
2023/07/03 03:46:05;;;;;;;20.30;14.20;;;14.70;99.90;;;;;;4935386;29;20209;-79
2023/07/03 03:48:35;;;;;;;19.43;14.00;;;14.70;99.90;;;;;;4934513;29;20278;-78
2023/07/03 03:51:03;;;;;;;19.70;14.63;;;14.70;99.90;;;;;;4935223;29;20218;-80
2023/07/03 03:53:33;;;;;;;20.97;14.73;;;14.70;99.90;;;;;;4968956;28;20415;-79
2023/07/03 03:56:01;;;;;;;21.57;15.73;;;14.80;99.90;;;;;;4971146;28;20277;-80
2023/07/03 03:58:29;;;;;;;19.83;14.93;;;14.80;99.90;;;;;;4934694;29;20216;-77
2023/07/03 04:00:57;;;;;;;19.87;14.57;;;14.90;99.90;;;;;;4934901;29;20222;-80
2023/07/03 04:03:25;;;;;;;17.27;13.80;;;14.90;99.90;;;;;;4933793;29;20257;-78
2023/07/03 04:05:53;;;;;;;17.33;13.40;;;14.90;99.90;;;;;;4934919;29;20593;-78
2023/07/03 04:08:22;;;;;;;18.10;14.13;;;15.00;99.90;;;;;;4934932;29;20302;-79
2023/07/03 04:10:51;;;;;;;17.37;13.97;;;15.00;99.90;;;;;;4934726;29;20212;-78
2023/07/03 04:13:19;;;;;;;21.00;14.10;;;15.10;99.90;;;;;;4934390;29;20212;-77
2023/07/03 04:15:58;;;;;;;19.43;13.90;;;15.10;99.90;;;;;;4935070;28;20282;-76
2023/07/03 04:18:27;;;;;;;18.30;14.17;;;15.20;99.90;;;;;;4934469;29;20689;-78
2023/07/03 04:20:55;;;;;;;19.50;15.57;;;15.20;99.90;;;;;;4934574;29;20216;-78
2023/07/03 04:23:24;;;;;;;18.37;14.33;;;15.30;99.90;;;;;;4933865;29;20578;-76
2023/07/03 04:25:54;;;;;;;22.47;14.90;;;15.40;99.90;;;;;;4934357;29;20784;-78
2023/07/03 04:28:23;;;;;;;20.73;14.70;;;15.40;99.90;;;;;;4934832;29;20208;-81
2023/07/03 04:30:51;;;;;;;20.73;15.10;;;15.50;99.90;;;;;;4934352;29;20643;-80
2023/07/03 04:33:19;;;;;;;20.00;14.33;;;15.60;99.90;;;;;;4934373;29;20571;-77
2023/07/03 04:35:48;;;;;;;20.20;13.97;;;15.60;99.90;;;;;;4932409;29;20439;-81
2023/07/03 04:38:18;;;;;;;18.53;14.17;;;15.70;99.90;;;;;;4934524;29;20239;-80
2023/07/03 04:40:47;;;;;;;20.27;13.77;;;15.70;99.90;;;;;;4934678;29;20605;-81
2023/07/03 04:43:17;;;;;;;18.67;14.57;;;15.60;99.90;;;;;;4934549;29;20267;-80
2023/07/03 04:45:47;;;;;;;20.77;14.30;;;15.70;99.90;;;;;;4934293;29;20208;-80
2023/07/03 04:48:16;;;;;;;21.87;14.53;;;15.60;99.90;;;;;;4934471;29;20238;-80
2023/07/03 04:50:46;;;;;;;20.43;14.73;;;15.70;99.90;;;;;;4947350;28;20277;-80
2023/07/03 04:53:14;;;;;;;22.43;14.73;;;15.70;99.90;;;;;;4972119;28;20230;-78
2023/07/03 04:55:42;;;;;;;22.73;14.53;;;15.80;99.90;;;;;;4943867;28;20275;-80
2023/07/03 04:58:11;;;;;;;20.47;15.07;;;15.90;99.90;;;;;;4934318;29;20212;-77
2023/07/03 05:00:40;;;;;;;21.87;14.67;;;16.00;99.90;;;;;;4934432;29;20251;-80
2023/07/03 05:03:10;;;;;;;22.40;15.10;;;16.10;99.90;;;;;;4934441;29;20212;-78
2023/07/03 05:05:38;;;;;;;21.47;13.90;;;16.20;99.90;;;;;;4934205;29;20208;-80
2023/07/03 05:08:06;;;;;;;19.73;13.80;;;16.20;99.90;;;;;;4934493;29;20272;-80
2023/07/03 05:10:35;;;;;;;18.17;12.87;;;16.30;99.90;;;;;;4934640;29;20307;-79
2023/07/03 05:13:03;;;;;;;23.10;14.53;;;16.40;99.90;;;;;;4934271;29;20236;-79
2023/07/03 05:15:31;;;;;;;17.80;13.93;;;16.50;99.90;;;;;;4935566;29;20236;-79
2023/07/03 05:18:01;;;;;;;20.07;14.33;;;16.60;99.90;;;;;;4938225;29;20212;-78
2023/07/03 05:20:29;;;;;;;18.47;13.93;;;16.70;99.90;;;;;;4937985;29;20710;-76
2023/07/03 05:22:58;;;;;;;21.47;14.00;;;16.90;99.90;;;;;;4937224;29;20691;-80
2023/07/03 05:25:26;;;;;;;20.93;13.70;;;17.00;99.90;;;;;;4937751;29;20694;-80
2023/07/03 05:27:54;;;;;;;21.73;14.27;;;17.20;99.90;;;;;;4938090;29;20244;-78
2023/07/03 05:30:22;;;;;;;19.00;14.20;;;17.30;99.90;;;;;;4938398;29;20208;-77
2023/07/03 05:32:51;;;;;;;21.13;13.83;;;17.40;99.90;;;;;;4938076;29;20220;-80
2023/07/03 05:35:20;;;;;;;21.93;14.27;;;17.50;99.90;;;;;;4937809;29;20229;-80
2023/07/03 05:37:48;;;;;;;22.23;14.37;;;17.50;99.90;;;;;;4938037;29;20300;-77
2023/07/03 05:40:17;;;;;;;21.43;14.03;;;17.50;99.90;;;;;;4937885;29;20685;-78
2023/07/03 05:42:45;;;;;;;19.23;13.80;;;17.60;99.90;;;;;;4936957;29;20216;-80
2023/07/03 05:45:13;;;;;;;20.17;13.70;;;17.80;99.90;;;;;;4937859;29;20247;-76
2023/07/03 05:47:41;;;;;;;21.20;13.90;;;17.80;99.90;;;;;;4937674;29;20595;-79
2023/07/03 05:50:10;;;;;;;18.67;13.40;;;17.90;99.90;;;;;;4963628;28;20211;-79
2023/07/03 05:52:41;;;;;;;21.03;13.87;;;18.00;99.90;;;;;;4963946;28;20246;-79
2023/07/03 05:55:10;;;;;;;19.10;13.73;;;18.40;99.90;;;;;;4937534;29;20224;-78
2023/07/03 05:57:39;;;;;;;21.33;13.50;;;18.70;99.90;;;;;;4937202;29;20773;-77
2023/07/03 06:00:13;;;;;;;17.77;13.17;;;19.00;99.90;;;;;;4937237;29;20268;-77
2023/07/03 06:02:42;;;;;;;20.23;13.87;;;19.40;99.90;;;;;;4936895;29;20618;-77
2023/07/03 06:05:12;;;;;;;17.27;14.40;;;19.40;99.90;;;;;;4937383;29;20294;-80
2023/07/03 06:07:41;;;;;;;16.87;13.03;;;19.50;99.90;;;;;;4937394;29;20295;-73
2023/07/03 06:10:10;;;;;;;17.53;12.80;;;20.10;99.90;;;;;;4937449;29;20214;-73
2023/07/03 06:12:39;;;;;;;19.67;13.60;;;21.00;99.90;;;;;;4936767;29;20216;-77
2023/07/03 06:15:09;;;;;;;19.03;13.10;;;21.20;99.90;;;;;;4936954;29;20697;-74
2023/07/03 06:17:38;;;;;;;18.70;13.07;;;21.30;99.00;;;;;;4936731;29;20234;-75
2023/07/03 06:20:10;;;;;;;16.80;12.83;;;21.20;99.30;;;;;;4937240;29;20211;-77
2023/07/03 06:22:41;;;;;;;19.07;12.90;;;21.10;98.40;;;;;;4936842;29;20197;-77
2023/07/03 06:25:09;;;;;;;16.93;12.63;;;20.90;99.90;;;;;;4936733;29;20761;-73
2023/07/03 06:27:38;;;;;;;17.80;12.43;;;20.90;99.10;;;;;;4944538;29;20204;-74
2023/07/03 06:30:08;;;;;;;18.77;11.40;;;21.00;99.10;;;;;;4955927;28;20282;-79
2023/07/03 06:32:36;;;;;;;19.90;12.40;;;20.90;98.90;;;;;;4955348;28;20678;-77
2023/07/03 06:35:05;;;;;;;15.97;11.23;;;20.70;99.00;;;;;;4951070;28;20219;-77
2023/07/03 06:37:34;;;;;;;18.20;11.83;;;20.50;99.60;;;;;;4936573;29;20260;-77
2023/07/03 06:40:09;;;;;;;16.73;11.00;;;20.30;99.10;;;;;;4936390;29;20208;-74
2023/07/03 06:42:37;;;;;;;18.37;11.57;;;20.40;99.90;;;;;;4936318;29;20215;-79
2023/07/03 06:45:06;;;;;;;18.37;11.13;;;20.60;98.70;;;;;;4935967;29;20240;-73
2023/07/03 06:47:34;;;;;;;19.10;11.33;;;20.80;97.60;;;;;;4943628;28;20207;-74
2023/07/03 06:50:03;;;;;;;17.87;11.30;;;21.10;95.90;;;;;;4974915;28;20211;-74
2023/07/03 06:52:34;;;;;;;17.83;11.23;;;21.40;96.70;;;;;;4974396;28;20286;-77
2023/07/03 06:55:02;;;;;;;16.43;10.87;;;21.20;94.90;;;;;;4937137;28;20224;-76
2023/07/03 06:57:33;;;;;;;17.07;10.77;;;21.40;94.70;;;;;;4936186;29;20682;-76
2023/07/03 07:00:05;;;;;;;17.13;10.13;;;21.70;94.40;;;;;;4936520;29;20205;-75
2023/07/03 07:02:33;;;;;;;17.40;10.03;;;22.20;92.00;;;;;;4935430;29;20303;-74
2023/07/03 07:05:01;;;;;;;16.23;9.87;;;22.70;91.10;;;;;;4936118;29;20220;-76
2023/07/03 07:07:31;;;;;;;16.57;9.93;;;22.90;87.80;;;;;;4935955;29;20295;-77
2023/07/03 07:09:59;;;;;;;18.07;9.70;;;22.90;84.40;;;;;;4936052;29;20267;-75
2023/07/03 07:12:27;;;;;;;18.03;9.50;;;22.90;87.60;;;;;;4935448;29;20224;-73
2023/07/03 07:14:57;;;;;;;16.50;9.23;;;23.00;80.70;;;;;;4935798;29;20240;-76
2023/07/03 07:17:26;;;;;;;16.70;9.40;;;22.80;81.40;;;;;;4935900;29;20258;-76
2023/07/03 07:20:13;;;;;;;16.40;9.40;;;22.60;80.40;;;;;;4935729;29;20635;-74
2023/07/03 07:22:41;;;;;;;16.17;9.70;;;22.50;83.40;;;;;;4935297;29;20241;-77
2023/07/03 07:25:10;;;;;;;17.07;10.30;;;22.50;84.80;;;;;;4935734;29;20220;-74
2023/07/03 07:27:38;;;;;;;15.00;9.73;;;22.50;86.30;;;;;;4935861;29;20212;-75
2023/07/03 07:30:09;;;;;;;15.37;9.67;;;22.20;84.60;;;;;;4935810;29;20266;-74
2023/07/03 07:32:37;;;;;;;14.83;9.70;;;22.20;85.60;;;;;;4935144;29;20219;-74
2023/07/03 07:35:09;;;;;;;17.67;10.30;;;22.20;88.90;;;;;;4935628;29;20589;-73
2023/07/03 07:37:38;;;;;;;18.63;11.33;;;22.30;82.40;;;;;;4934914;29;20236;-75
2023/07/03 07:40:07;;;;;;;16.03;10.17;;;22.30;80.60;;;;;;4935462;29;20243;-73
2023/07/03 07:42:36;;;;;;;17.67;10.33;;;22.80;82.90;;;;;;4935006;29;20259;-77
2023/07/03 07:45:05;;;;;;;19.00;10.47;;;23.30;83.70;;;;;;4935361;29;20212;-75
2023/07/03 07:47:35;;;;;;;17.10;10.87;;;23.40;77.40;;;;;;4964684;28;20209;-74
2023/07/03 07:50:03;;;;;;;15.47;9.90;;;24.00;79.30;;;;;;4951163;28;20235;-75
2023/07/03 07:52:31;;;;;;;17.17;10.33;;;25.20;73.80;;;;;;4934884;29;20211;-75
2023/07/03 07:55:00;;;;;;;17.90;10.40;;;26.10;67.80;;;;;;4935086;29;20638;-75
2023/07/03 07:57:29;;;;;;;16.75;9.73;;;26.90;63.60;;;;;;4935021;29;20572;-77
2023/07/03 07:59:58;;;;;;;16.50;10.23;;;27.70;58.40;;;;;;4935277;29;20218;-76
2023/07/03 08:02:26;;;;;;;17.92;10.60;;;27.10;55.40;;;;;;4934922;29;20208;-77
2023/07/03 08:04:57;;;;;;;16.30;10.50;;;27.10;57.50;;;;;;4935279;29;20220;-75
2023/07/03 08:07:25;;;;;;;17.90;10.30;;;27.60;55.90;;;;;;4934872;29;20208;-76
2023/07/03 08:09:54;;;;;;;13.90;10.30;;;28.10;54.40;;;;;;4935101;29;20220;-76
2023/07/03 08:12:23;;;;;;;15.40;10.57;;;28.70;53.30;;;;;;4934838;29;20618;-77
2023/07/03 08:14:51;;;;;;;16.40;10.65;;;28.90;52.70;;;;;;4934768;29;20216;-76
2023/07/03 08:17:20;;;;;;;14.52;10.07;;;29.00;49.90;;;;;;4934609;29;20227;-76
2023/07/03 08:19:48;;;;;;;13.45;9.82;;;28.80;47.40;;;;;;4935059;29;20208;-77
2023/07/03 08:22:17;;;;;;;15.73;10.48;;;29.00;48.10;;;;;;4934528;29;20228;-75
2023/07/03 08:24:45;;;;;;;13.68;10.50;;;28.50;50.20;;;;;;4934818;29;20208;-77
2023/07/03 08:27:14;;;;;;;15.27;10.48;;;28.00;49.30;;;;;;4934725;29;20259;-76
2023/07/03 08:29:42;;;;;;;15.00;9.93;;;27.80;49.10;;;;;;4934755;29;20215;-75
2023/07/03 08:32:11;;;;;;;14.05;10.05;;;27.10;50.60;;;;;;4934556;29;20368;-73
2023/07/03 08:34:40;;;;;;;15.93;10.50;;;26.60;51.10;;;;;;4935331;29;20299;-74
2023/07/03 08:37:08;;;;;;;13.65;10.25;;;25.90;54.10;;;;;;4934893;29;20232;-74
2023/07/03 08:39:40;;;;;;;16.20;10.37;;;25.60;55.90;;;;;;4937833;29;20215;-74
2023/07/03 08:42:16;;;;;;;14.43;10.40;;;24.90;61.20;;;;;;4940279;29;20212;-74
2023/07/03 08:44:44;;;;;;;13.70;10.03;;;24.90;59.40;;;;;;4954371;28;20269;-76
2023/07/03 08:47:18;;;;;;;15.33;9.97;;;24.60;61.10;;;;;;4974869;28;20257;-75
2023/07/03 08:49:48;;;;;;;15.17;10.73;;;24.50;60.50;;;;;;4962803;28;20217;-75
2023/07/03 08:52:21;;;;;;;15.97;10.63;;;24.90;58.70;;;;;;4938799;29;20219;-75
2023/07/03 08:54:52;;;;;;;16.20;9.87;;;25.80;59.10;;;;;;4938621;29;20267;-76
2023/07/03 08:57:21;;;;;;;13.80;9.60;;;25.70;58.30;;;;;;4938320;29;20252;-74
2023/07/03 08:59:49;;;;;;;14.57;10.17;;;26.00;59.10;;;;;;4938583;29;20267;-74
2023/07/03 09:02:30;;;;;;;13.57;9.77;;;26.10;57.90;;;;;;4938390;29;20243;-76
2023/07/03 09:05:15;;;;;;;14.37;8.90;;;26.10;58.30;;;;;;4938343;29;20302;-75
2023/07/03 09:07:46;;;;;;;15.07;9.60;;;25.80;59.80;;;;;;4922061;29;20291;-75
2023/07/03 09:10:22;;;;;;;15.23;9.57;;;25.50;57.00;;;;;;4938050;29;20212;-77
2023/07/03 09:12:55;;;;;;;15.20;10.10;;;25.20;59.50;;;;;;4938050;29;20255;-75
2023/07/03 09:15:28;;;;;;;13.00;9.20;;;25.10;59.40;;;;;;4938313;29;20546;-75
2023/07/03 09:17:59;;;;;;;14.63;9.50;;;25.00;59.50;;;;;;4938621;29;20212;-77
2023/07/03 09:20:28;;;;;;;15.00;9.93;;;24.90;60.10;;;;;;4938304;29;20624;-78
2023/07/03 09:23:04;;;;;;;14.10;9.53;;;24.90;63.60;;;;;;4937954;29;20216;-78
2023/07/03 09:25:41;;;;;;;15.07;9.60;;;24.60;60.70;;;;;;4937955;29;20220;-76
2023/07/03 09:28:10;;;;;;;19.93;9.67;;;24.20;63.90;;;;;;4937750;29;20247;-76
2023/07/03 09:30:38;;;;;;;18.70;9.30;;;23.90;65.20;;;;;;4937932;29;20220;-78
2023/07/03 09:33:07;;;;;;;13.30;9.80;;;23.60;65.70;;;;;;4937289;29;20212;-80
2023/07/03 09:35:40;;;;;;;15.27;9.57;;;23.50;65.10;;;;;;4937668;29;20603;-76
2023/07/03 09:38:12;;;;;;;13.37;9.13;;;23.40;70.10;;;;;;4938186;29;20204;-79
2023/07/03 09:40:45;;;;;;;12.80;8.47;;;23.50;68.60;;;;;;4937702;29;20279;-75
2023/07/03 09:43:18;;;;;;;15.50;9.20;;;23.40;65.90;;;;;;4942201;28;20212;-76
2023/07/03 09:45:46;;;;;;;13.43;8.23;;;23.60;68.80;;;;;;4975960;28;20230;-78
2023/07/03 09:48:22;;;;;;;14.27;8.20;;;23.70;67.40;;;;;;4975961;28;20322;-76
2023/07/03 09:50:51;;;;;;;12.00;8.10;;;24.10;64.50;;;;;;4973097;28;20216;-74
2023/07/03 09:53:37;;;;;;;12.07;7.57;;;24.20;63.40;;;;;;4937324;29;20295;-79
2023/07/03 09:56:13;;;;;;;14.90;8.23;;;24.20;67.60;;;;;;4937425;29;20212;-75
2023/07/03 09:58:47;;;;;;;11.10;7.20;;;24.20;67.60;;;;;;4937477;29;20230;-76
2023/07/03 10:01:18;;;;;;;11.60;7.30;;;24.20;64.30;;;;;;4935992;29;20737;-79
2023/07/03 10:03:52;;;;;;;10.87;7.20;;;24.50;60.90;;;;;;4937179;29;20192;-78
2023/07/03 10:06:21;;;;;;;10.63;6.50;;;24.30;62.30;;;;;;4937324;29;20299;-79
2023/07/03 10:08:53;;;;;;;10.43;7.10;;;23.90;61.00;;;;;;4937336;29;20271;-77
2023/07/03 10:11:31;;;;;;;13.40;7.27;;;23.60;62.30;;;;;;4936973;29;20267;-76
2023/07/03 10:14:00;;;;;;;11.97;7.10;;;23.40;65.40;;;;;;4936918;29;20192;-74
2023/07/03 10:16:31;;;;;;;10.80;7.20;;;23.40;65.90;;;;;;4936888;29;20658;-78
2023/07/03 10:18:59;;;;;;;13.33;7.77;;;23.20;64.40;;;;;;4936876;29;20212;-75
2023/07/03 10:21:28;;;;;;;11.57;7.83;;;23.00;69.50;;;;;;4937063;29;20209;-79
2023/07/03 10:23:58;;;;;;;11.87;7.30;;;23.10;68.30;;;;;;4936271;29;20591;-75
2023/07/03 10:26:31;;;;;;;12.27;7.10;;;23.20;69.70;;;;;;4936927;29;20279;-78
2023/07/03 10:29:05;;;;;;;12.60;7.77;;;23.10;70.40;;;;;;4936291;29;20263;-79
2023/07/03 10:31:39;;;;;;;12.10;7.20;;;23.00;69.60;;;;;;4936443;29;20212;-79
2023/07/03 10:34:13;;;;;;;10.53;7.20;;;23.10;69.00;;;;;;4936582;29;20239;-77
2023/07/03 10:36:44;;;;;;;11.37;6.90;;;23.10;71.50;;;;;;4936810;29;20232;-75
2023/07/03 10:39:19;;;;;;;11.57;7.33;;;23.30;72.30;;;;;;4936490;29;20263;-79
2023/07/03 10:41:51;;;;;;;9.87;6.97;;;23.20;71.70;;;;;;4939612;28;20212;-73
2023/07/03 10:44:21;;;;;;;11.20;7.13;;;23.40;70.50;;;;;;4974977;28;20244;-78
2023/07/03 10:46:55;;;;;;;11.90;7.13;;;23.30;70.50;;;;;;4947719;28;20212;-76
2023/07/03 10:49:27;;;;;;;12.83;6.57;;;23.20;70.50;;;;;;4936397;29;20251;-78
2023/07/03 10:52:07;;;;;;;10.20;6.67;;;23.20;69.00;;;;;;4935826;29;20745;-78
2023/07/03 10:54:42;;;;;;;12.43;7.00;;;23.20;73.60;;;;;;4936234;29;20227;-74
2023/07/03 10:57:18;;;;;;;23.63;8.27;;;23.00;75.10;;;;;;4936181;29;20215;-77
2023/07/03 10:59:52;;;;;;;18.63;7.30;;;23.20;74.90;;;;;;4936320;29;20243;-76
2023/07/03 11:02:30;;;;;;;15.30;7.40;;;23.90;75.10;;;;;;4936027;29;20238;-77
2023/07/03 11:05:09;;;;;;;14.67;7.10;;;24.10;70.70;;;;;;4936073;29;20244;-75
2023/07/03 11:07:43;;;;;;;21.20;7.97;;;23.90;68.30;;;;;;4934725;29;20255;-75
2023/07/03 11:10:18;;;;;;;13.47;7.00;;;23.50;71.80;;;;;;4936147;29;20276;-76
2023/07/03 11:12:54;;;;;;;11.53;7.10;;;23.20;73.50;;;;;;4935748;29;20216;-76
2023/07/03 11:15:31;;;;;;;9.03;6.33;;;23.00;73.20;;;;;;4936278;29;20197;-76
2023/07/03 11:18:13;;;;;;;11.30;6.27;;;22.90;76.80;;;;;;4935961;29;20223;-74
2023/07/03 11:20:52;;;;;;;8.83;6.37;;;22.90;76.60;;;;;;4936006;29;20192;-76
2023/07/03 11:23:32;;;;;;;10.07;6.67;;;23.10;74.40;;;;;;4935345;29;20220;-75
2023/07/03 11:26:11;;;;;;;12.47;6.33;;;23.30;73.00;;;;;;4935979;29;20216;-73
2023/07/03 11:28:48;;;;;;;11.97;6.37;;;23.30;74.80;;;;;;4935795;29;20722;-77
2023/07/03 11:31:17;;;;;;;11.17;6.23;;;23.40;76.20;;;;;;4935708;29;20223;-75
2023/07/03 11:33:46;;;;;;;10.80;6.40;;;23.50;72.80;;;;;;4935178;29;20650;-77
2023/07/03 11:36:41;;;;;;;10.17;6.40;;;23.70;76.00;;;;;;4935689;29;20296;-76
2023/07/03 11:39:21;;;;;;;10.93;6.30;;;23.80;71.90;;;;;;4935611;29;20200;-74
2023/07/03 11:41:54;;;;;;;9.10;6.07;;;23.80;73.40;;;;;;4964126;28;20217;-74
2023/07/03 11:44:38;;;;;;;11.20;6.17;;;23.90;73.00;;;;;;4973621;28;20631;-78
2023/07/03 11:47:08;;;;;;;10.73;6.07;;;24.00;70.50;;;;;;4970533;28;20241;-76
2023/07/03 11:49:39;;;;;;;9.03;5.63;;;23.80;70.30;;;;;;4935401;29;20236;-75
2023/07/03 11:52:13;;;;;;;10.53;5.93;;;23.60;69.40;;;;;;4935446;29;20625;-79
2023/07/03 11:54:43;;;;;;;10.03;5.87;;;23.40;70.60;;;;;;4934983;29;20224;-79
2023/07/03 11:57:29;;;;;;;10.17;5.80;;;23.60;71.30;;;;;;4935674;29;20260;-74
2023/07/03 12:00:15;;;;;;;8.83;6.10;;;23.60;73.90;;;;;;4935416;29;20196;-78
2023/07/03 12:02:51;;;;;;;9.63;6.00;;;23.70;74.40;;;;;;4935018;29;20267;-73
2023/07/03 12:05:54;;;;;;;11.20;5.80;;;23.80;69.50;;;;;;4935200;29;20294;-79
2023/07/03 12:08:52;;;;;;;7.70;5.73;;;23.60;70.00;;;;;;4935317;29;20307;-78
2023/07/03 12:11:26;;;;;;;9.63;6.10;;;23.60;71.90;;;;;;4913726;29;20205;-75
2023/07/03 12:13:55;;;;;;;7.93;5.40;;;23.80;68.80;;;;;;4931208;29;20234;-78
2023/07/03 12:16:29;;;;;;;9.13;6.00;;;24.00;69.60;;;;;;4935110;29;20216;-78
2023/07/03 12:19:04;;;;;;;12.93;6.00;;;24.10;67.80;;;;;;4935180;29;20216;-73
2023/07/03 12:21:44;;;;;;;12.33;5.73;;;24.80;66.40;;;;;;4935000;29;20217;-79
2023/07/03 12:24:28;;;;;;;10.90;6.03;;;25.20;66.60;;;;;;4934166;29;20219;-75
2023/07/03 12:27:00;;;;;;;8.70;5.07;;;25.20;64.70;;;;;;4935221;29;20212;-78
2023/07/03 12:29:29;;;;;;;10.37;5.93;;;25.10;63.80;;;;;;4935315;29;20271;-75
2023/07/03 12:32:05;;;;;;;11.63;6.13;;;24.90;62.50;;;;;;4934359;29;20227;-78
2023/07/03 12:34:36;;;;;;;11.30;6.07;;;25.00;63.70;;;;;;4934907;28;20235;-74
2023/07/03 12:37:06;;;;;;;8.13;5.47;;;24.70;61.00;;;;;;4935002;29;20235;-76
2023/07/03 12:39:36;;;;;;;10.23;6.00;;;25.10;61.70;;;;;;4948845;28;20290;-78
2023/07/03 12:42:09;;;;;;;10.00;6.03;;;25.20;62.60;;;;;;4973076;28;20293;-76
2023/07/03 12:44:38;;;;;;;7.33;5.40;;;24.90;60.80;;;;;;4973297;28;20222;-77
2023/07/03 12:47:13;;;;;;;10.60;5.70;;;25.00;64.60;;;;;;4949484;28;20239;-79
2023/07/03 12:49:58;;;;;;;9.47;5.57;;;25.20;60.90;;;;;;4934741;29;20223;-75